createdAt,value
2023-03-23T15:59:19.456Z,97619.16
2023-03-23T16:04:26.688Z,97618.47
2023-03-23T16:09:31.278Z,97616.94
2023-03-23T16:14:35.821Z,97612.13
2023-03-23T16:19:41.374Z,97616.91
2023-03-23T16:24:46.147Z,97621.00
2023-03-23T16:30:03.074Z,97618.25
2023-03-23T16:35:10.416Z,97614.19
2023-03-23T16:40:15.432Z,97611.06
2023-03-23T16:45:20.030Z,97607.41
2023-03-23T16:50:25.855Z,97617.72
2023-03-23T16:55:31.480Z,97614.41
2023-03-23T17:00:36.183Z,97617.56
2023-03-23T17:05:43.128Z,97615.28
2023-03-23T17:10:48.297Z,97621.88
2023-03-23T17:15:54.903Z,97621.00
2023-03-23T17:21:00.696Z,97601.91
2023-03-23T17:26:05.095Z,97606.28
2023-03-23T17:31:09.281Z,97607.38
2023-03-23T17:36:14.974Z,97621.75
2023-03-23T17:41:21.017Z,97623.81
2023-03-23T17:46:25.672Z,97624.63
2023-03-23T17:51:31.323Z,97637.03
2023-03-23T17:56:35.799Z,97628.81
2023-03-23T18:01:39.930Z,97632.91
2023-03-23T18:06:46.010Z,97634.34
2023-03-23T18:11:50.248Z,97649.16
2023-03-23T18:16:54.668Z,97651.16
2023-03-23T18:22:00.920Z,97658.19
2023-03-23T18:27:05.373Z,97657.97
2023-03-23T18:32:09.640Z,97665.44
2023-03-23T18:37:15.657Z,97660.84
2023-03-23T18:42:19.822Z,97671.94
2023-03-23T18:47:24.236Z,97675.16
2023-03-23T18:52:31.086Z,97680.41
2023-03-23T18:57:35.293Z,97673.72
2023-03-23T19:02:40.004Z,97671.13
2023-03-23T19:07:46.044Z,97666.47
2023-03-23T19:12:51.252Z,97668.06
2023-03-23T19:17:56.639Z,97667.50
2023-03-23T19:23:02.258Z,97681.00
2023-03-23T19:33:14.090Z,97680.22
2023-03-23T19:38:21.232Z,97678.59
2023-03-23T19:43:27.617Z,97679.63
2023-03-23T19:48:33.166Z,97688.09
2023-03-23T19:53:39.714Z,97685.25
2023-03-23T19:58:44.187Z,97697.56
2023-03-23T20:03:48.726Z,97700.19
2023-03-23T20:08:54.326Z,97694.53
2023-03-23T20:13:59.712Z,97703.81
2023-03-23T20:19:05.400Z,97705.22
2023-03-23T20:24:11.806Z,97706.84
2023-03-23T20:29:16.433Z,97708.88
2023-03-23T20:34:28.918Z,97695.16
2023-03-23T20:39:34.461Z,97691.72
2023-03-23T20:44:39.506Z,97691.13
2023-03-23T20:49:43.673Z,97692.34
2023-03-23T20:54:58.956Z,97701.00
2023-03-23T21:00:06.581Z,97687.28
2023-03-23T21:05:11.170Z,97703.03
2023-03-23T21:10:17.188Z,97702.41
2023-03-23T21:15:22.114Z,97710.28
2023-03-23T21:20:26.747Z,97709.66
2023-03-23T21:25:35.186Z,97715.53
2023-03-23T21:30:42.044Z,97714.56
2023-03-23T21:35:46.346Z,97715.75
2023-03-23T21:40:51.945Z,97713.31
2023-03-23T21:45:58.960Z,97707.03
2023-03-23T21:51:06.655Z,97706.44
2023-03-23T21:56:14.279Z,97717.72
2023-03-23T22:01:19.466Z,97713.69
2023-03-23T22:06:26.711Z,97713.91
2023-03-23T22:11:32.880Z,97704.59
2023-03-23T22:16:37.007Z,97695.31
2023-03-23T22:21:42.434Z,97698.13
2023-03-23T22:26:48.006Z,97700.34
2023-03-23T22:31:52.732Z,97704.34
2023-03-23T22:36:57.481Z,97716.88
2023-03-23T22:42:03.155Z,97721.31
2023-03-23T22:47:07.354Z,97718.91
2023-03-23T22:52:11.681Z,97715.88
2023-03-23T22:57:17.400Z,97704.78
2023-03-23T23:02:21.704Z,97712.66
2023-03-23T23:07:26.342Z,97722.56
2023-03-23T23:12:35.167Z,97716.09
2023-03-23T23:17:39.714Z,97714.91
2023-03-23T23:22:45.053Z,97725.22
2023-03-23T23:27:50.820Z,97715.31
2023-03-23T23:32:55.382Z,97715.72
2023-03-23T23:37:59.507Z,97718.34
2023-03-23T23:43:05.834Z,97723.81
2023-03-23T23:48:10.405Z,97719.78
2023-03-23T23:53:14.839Z,97723.00
2023-03-23T23:58:20.861Z,97720.78
